Nearby METAR Reports

 

KPTW - Pottstown, Pennsylvania, USA
Distance from station: NE 6mi, 10km
Updated: 11/19/2018 12:54am
Clear
Clear
 Wind from calm
Wind: Calm
Temperature: 34°F , 1°C
Dew Point: 30°F , -1°C
Humidity: 87%
Barometer: 30.17 inHg , 1021.7 hPa
Clouds: Clear
Visibility: 8 miles , 13 km
2018/11/19 05:54 KPTW 190554Z AUTO 00000KT 8SM CLR 01/M01 A3017 RMK AO2 SLP217 T00061011 10039 20006 58018
KMQS - Coatesville, Pennsylvania, USA
Distance from station: SW 18mi, 29km
Updated: 11/19/2018 12:55am
Mist, Clear
Mist, Clear
 Wind from E
Wind: E 3 mph , 6 km/h
Temperature: 36°F , 2°C
Dew Point: 34°F , 1°C
Humidity: 93%
Barometer: 30.16 inHg , 1021.3 hPa
Summary: Mist
Clouds: Clear
Visibility: 4 miles , 6 km
2018/11/19 05:55 KMQS 190555Z AUTO 10003KT 4SM BR CLR 02/01 A3016 RMK AO2
 
KLOM - Philly Wings F, Pennsylvania, USA
Distance from station: E 19mi, 31km
Updated: 11/19/2018 12:55am
Clear
Clear
 Wind from calm
Wind: Calm
Temperature: 32°F , 0°C
Dew Point: 32°F , 0°C
Humidity: 100%
Barometer: 30.18 inHg , 1022 hPa
Clouds: Clear
Visibility: 5 miles , 8 km
2018/11/19 05:55 KLOM 190555Z AUTO 00000KT 5SM CLR 00/00 A3018 RMK AO1
KRDG - Reading, Pennsylvania, USA
Distance from station: NW 22mi, 36km
Updated: 11/19/2018 12:54am
Few Clouds
Few Clouds
 Wind from S
Wind: S 3 mph , 6 km/h
Temperature: 41°F , 5°C
Dew Point: 37°F , 3°C
Humidity: 87%
Barometer: 30.14 inHg , 1020.7 hPa
Clouds: Few Clouds
Visibility: 10 miles , 16 km
Cloud details: Few Clouds 7000 ft
2018/11/19 05:54 KRDG 190554Z AUTO 19003KT 10SM FEW070 05/03 A3014 RMK AO2 SLP213 T00500028 10067 20044 58019
 
KUKT - Quakertown Arp, Pennsylvania, USA
Distance from station: NE 22mi, 36km
Updated: 11/19/2018 12:55am
Few Clouds
Few Clouds
 Wind from calm
Wind: Calm
Temperature: 34°F , 1°C
Dew Point: 32°F , 0°C
Humidity: 93%
Barometer: 30.15 inHg , 1021 hPa
Clouds: Few Clouds
Visibility: 10 miles , 16 km
Cloud details: Few Clouds 1700 ft
2018/11/19 05:55 KUKT 190555Z AUTO 00000KT 10SM FEW017 01/M00 A3015 RMK A01
KXLL - Allentown Queen, Pennsylvania, USA
Distance from station: NNE 28mi, 46km
Updated: 11/19/2018 12:55am
Mostly Cloudy
Mostly Cloudy
 Wind from calm
Wind: Calm
Temperature: 36°F , 2°C
Dew Point: 32°F , 0°C
Humidity: 87%
Barometer: 30.16 inHg , 1021.3 hPa
Clouds: Mostly Cloudy
Visibility: 10 miles , 16 km
Cloud details: Mostly Cloudy 7500 ft
2018/11/19 05:55 KXLL 190555Z AUTO 00000KT 10SM BKN075 02/00 A3016 RMK AO2
 
KDYL - Doylestown, Pennsylvania, USA
Distance from station: ENE 29mi, 47km
Updated: 11/19/2018 12:54am
Few Clouds
Few Clouds
 Wind from calm
Wind: Calm
Temperature: 34°F , 1°C
Dew Point: 30°F , -1°C
Humidity: 87%
Barometer: 30.16 inHg , 1021.3 hPa
Clouds: Few Clouds
Visibility: 10 miles , 16 km
Cloud details: Few Clouds 10000 ft
2018/11/19 05:54 KDYL 190554Z AUTO 00000KT 10SM FEW100 01/M01 A3016 RMK AO2 SLP218 T00111011 10039 20006 58018
KPHL - Philadelphia, Pennsylvania, USA
Distance from station: SE 30mi, 48km
Updated: 11/19/2018 12:54am
Partly Cloudy
Partly Cloudy
 Wind from calm
Wind: Calm
Temperature: 37°F , 3°C
Dew Point: 36°F , 2°C
Humidity: 93%
Barometer: 30.18 inHg , 1022 hPa
Clouds: Partly Cloudy
Visibility: 10 miles , 16 km
Cloud details: Partly Cloudy 28000 ft
2018/11/19 05:54 KPHL 190554Z 00000KT 10SM SCT280 03/02 A3018 RMK AO2 RAB32E41 SLP221 P0000 60000 T00280017 10056 20022 58013 $
 
KPNE - Philadelphia/Ne, Pennsylvania, USA
Distance from station: E 33mi, 53km
Updated: 11/19/2018 12:54am
Clear
Clear
 Wind from calm
Wind: Calm
Temperature: 36°F , 2°C
Dew Point: 30°F , -1°C
Humidity: 81%
Barometer: 30.19 inHg , 1022.4 hPa
Clouds: Clear
Visibility: 9 miles , 14 km
2018/11/19 05:54 KPNE 190554Z AUTO 00000KT 9SM CLR 02/M01 A3019 RMK AO2 SLP223 T00221006 10050 20022 58012
KABE - Allentown, Pennsylvania, USA
Distance from station: NNE 34mi, 55km
Updated: 11/19/2018 12:51am
Mostly Cloudy
Mostly Cloudy
 Wind from NNE
Wind: NNE 3 mph , 6 km/h
Temperature: 37°F , 3°C
Dew Point: 28°F , -2°C
Humidity: 70%
Barometer: 30.15 inHg , 1021 hPa
Clouds: Mostly Cloudy
Visibility: 10 miles , 16 km
Cloud details: Few Clouds 3100 ft
Mostly Cloudy 7500 ft
2018/11/19 05:51 KABE 190551Z 03003KT 10SM FEW031 BKN075 03/M02 A3015 RMK AO2 SLP212 T00281017 10044 20028 58021
 
KILG - Wilmington, Delaware, USA
Distance from station: S 35mi, 56km
Updated: 11/19/2018 12:51am
Mist, Clear
Mist, Clear
 Wind from N
Wind: N 3 mph , 6 km/h
Temperature: 36°F , 2°C
Dew Point: 34°F , 1°C
Humidity: 93%
Barometer: 30.18 inHg , 1022 hPa
Summary: Mist
Clouds: Clear
Visibility: 6 miles , 10 km
2018/11/19 05:51 KILG 190551Z AUTO 01003KT 6SM BR CLR 02/01 A3018 RMK AO2 SLP220 T00170011 10061 20011 58012 $
KLNS - Lancaster, Pennsylvania, USA
Distance from station: W 36mi, 57km
Updated: 11/19/2018 12:53am
Mist, Clear
Mist, Clear
 Wind from NNE
Wind: NNE 3 mph , 6 km/h
Temperature: 41°F , 5°C
Dew Point: 37°F , 3°C
Humidity: 87%
Barometer: 30.15 inHg , 1021 hPa
Summary: Mist
Clouds: Clear
Visibility: 6 miles , 10 km
2018/11/19 05:53 KLNS 190553Z AUTO 03003KT 6SM BR CLR 05/03 A3015 RMK AO2 SLP210 T00500033 10067 20044 58015
 
KTTN - Trenton, New Jersey, USA
Distance from station: E 44mi, 70km
Updated: 11/19/2018 12:53am
Clear
Clear
 Wind from calm
Wind: Calm
Temperature: 36°F , 2°C
Dew Point: 32°F , 0°C
Humidity: 87%
Barometer: 30.17 inHg , 1021.7 hPa
Clouds: Clear
Visibility: 10 miles , 16 km
2018/11/19 05:53 KTTN 190553Z AUTO 00000KT 10SM CLR 02/00 A3017 RMK AO2 SLP210 T00170000 10050 20017 58018
KVAY - Mount Holly, New Jersey, USA
Distance from station: ESE 45mi, 73km
Updated: 11/19/2018 12:54am
Mist, Clear
Mist, Clear
 Wind from calm
Wind: Calm
Temperature: 32°F , 0°C
Dew Point: 30°F , -1°C
Humidity: 93%
Barometer: 30.18 inHg , 1022 hPa
Summary: Mist
Clouds: Clear
Visibility: 5 miles , 8 km
2018/11/19 05:54 KVAY 190554Z AUTO 00000KT 5SM BR CLR 00/M01 A3018 RMK AO2 SLP221 T00001011 10033 20000 58013 $
 
KMUI - Muir Aaf/Indiant, Pennsylvania, USA
Distance from station: WNW 52mi, 84km
Updated: 11/19/2018 12:56am
Overcast
Overcast
 Wind from NNE
Wind: NNE 3 mph , 6 km/h
Temperature: 39°F , 4°C
Dew Point: 34°F , 1°C
Humidity: 81%
Barometer: 30.13 inHg , 1020.3 hPa
Clouds: Overcast
Visibility: 10 miles , 16 km
Cloud details: Overcast 1900 ft
2018/11/19 05:56 KMUI 190556Z AUTO 02003KT 10SM OVC019 04/01 A3013 RMK AO2 OVC V BKN SLP210 T00370009 10046 20036 57017 $
KAPG - Aberdeen/Phillip, Maryland, USA
Distance from station: SSW 56mi, 91km
Updated: 11/17/2018 1:47pm
NOT Current
Partly Cloudy
Partly Cloudy
 Wind from WNW
Wind: WNW 7 mph , 11 km/h
Temperature: 46°F , 8°C
Wind Chill: 42°F , 6°C
Dew Point: 30°F , -1°C
Humidity: 53%
Barometer: 30.24 inHg , 1024 hPa
Clouds: Partly Cloudy
Visibility: 10 miles , 16 km
Cloud details: Partly Cloudy 4200 ft
2018/11/17 18:47 KAPG 171847Z 29006KT 10SM SCT042 08/M01 A3024 RMK SLP244
 
KWRI - Wrightst/Mcguire, New Jersey, USA
Distance from station: E 56mi, 91km
Updated: 11/19/2018 12:56am
Few Clouds
Few Clouds
 Wind from calm
Wind: Calm
Temperature: 34°F , 1°C
Dew Point: 32°F , 0°C
Humidity: 93%
Barometer: 30.26 inHg , 1024.7 hPa
Clouds: Few Clouds
Visibility: 10 miles , 16 km
Cloud details: Few Clouds 11000 ft
2018/11/19 05:56 KWRI 190556Z 00000KT 10SM FEW110 01/00 A3026 RMK AO2A WND DATA ESTMD ALSTG ESTMD SLPNO RVRNO $
KSMQ - Somerville, New Jersey, USA
Distance from station: ENE 59mi, 96km
Updated: 11/19/2018 12:53am
Overcast
Overcast
 Wind from calm
Wind: Calm
Temperature: 34°F , 1°C
Dew Point: 30°F , -1°C
Humidity: 87%
Barometer: 30.16 inHg , 1021.3 hPa
Clouds: Overcast
Visibility: 10 miles , 16 km
Cloud details: Overcast 3700 ft
2018/11/19 05:53 KSMQ 190553Z AUTO 00000KT 10SM OVC037 01/M01 A3016 RMK AO2 SLP215 T00061006 10044 20000 58019
 
KMDT - Middletown, Pennsylvania, USA
Distance from station: W 60mi, 97km
Updated: 11/19/2018 12:56am
Mostly Cloudy
Mostly Cloudy
 Wind from calm
Wind: Calm
Temperature: 37°F , 3°C
Dew Point: 34°F , 1°C
Humidity: 87%
Barometer: 30.13 inHg , 1020.3 hPa
Clouds: Mostly Cloudy
Visibility: 7 miles , 11 km
Cloud details: Mostly Cloudy 14000 ft
Mostly Cloudy 17000 ft
2018/11/19 05:56 KMDT 190556Z 00000KT 7SM BKN140 BKN170 03/01 A3013 RMK AO2 SLP206 T00280006 10061 20022 58016
KMIV - Millville, New Jersey, USA
Distance from station: SSE 63mi, 101km
Updated: 11/19/2018 12:54am
Partly Cloudy
Partly Cloudy
 Wind from calm
Wind: Calm
Temperature: 34°F , 1°C
Dew Point: 32°F , 0°C
Humidity: 93%
Barometer: 30.18 inHg , 1022 hPa
Clouds: Partly Cloudy
Visibility: 8 miles , 13 km
Cloud details: Partly Cloudy 1900 ft
2018/11/19 05:54 KMIV 190554Z AUTO 00000KT 8SM SCT019 01/00 A3018 RMK AO2 SLP220 T00060000 10028 20000 58013